Time;durP1;ratioP1;P1;durP2;ratioP2;P2;SDS_P1;SDS_P2;PMS_P1;PMS_P2;Temp;Humidity;BMP_temperature;BMP_pressure;BME280_temperature;BME280_humidity;BME280_pressure;Samples;Min_cycle;Max_cycle;Signal;HPM_P1;HPM_P2
2022/04/18 00:01:56;;;;;;;5.85;3.15;;;;;;;;;;4974900;28;20407;-80
2022/04/18 00:04:21;;;;;;;6.45;3.08;;;;;;;;;;4974304;28;20404;-80
2022/04/18 00:06:46;;;;;;;5.13;2.92;;;;;;;;;;4975082;28;20049;-81
2022/04/18 00:09:12;;;;;;;5.07;3.17;;;;;;;;;;4973967;28;20031;-80
2022/04/18 00:11:37;;;;;;;7.65;2.90;;;;;;;;;;4975045;28;20046;-80
2022/04/18 00:14:02;;;;;;;5.00;3.35;;;;;;;;;;4974647;28;20042;-80
2022/04/18 00:16:27;;;;;;;5.28;2.97;;;;;;;;;;4974157;28;20414;-81
2022/04/18 00:18:53;;;;;;;5.65;2.92;;;;;;;;;;4973485;28;20042;-79
2022/04/18 00:21:18;;;;;;;4.85;3.15;;;;;;;;;;4973479;28;20486;-79
2022/04/18 00:23:43;;;;;;;5.90;3.25;;;;;;;;;;4974539;28;20031;-79
2022/04/18 00:26:08;;;;;;;5.05;3.10;;;;;;;;;;4973138;28;20038;-79
2022/04/18 00:28:34;;;;;;;4.38;2.80;;;;;;;;;;4974846;28;20058;-80
2022/04/18 00:30:59;;;;;;;5.05;2.72;;;;;;;;;;4974539;28;20411;-80
2022/04/18 00:33:25;;;;;;;5.47;2.80;;;;;;;;;;4973453;28;20039;-79
2022/04/18 00:35:51;;;;;;;5.65;2.67;;;;;;;;;;4973863;28;20031;-79
2022/04/18 00:38:17;;;;;;;5.43;2.65;;;;;;;;;;4973423;28;20034;-79
2022/04/18 00:40:42;;;;;;;6.63;3.15;;;;;;;;;;4972970;28;20046;-79
2022/04/18 00:43:08;;;;;;;5.30;2.70;;;;;;;;;;4974475;28;20066;-79
2022/04/18 00:45:33;;;;;;;6.40;2.90;;;;;;;;;;4972585;28;20035;-79
2022/04/18 00:47:58;;;;;;;4.13;2.85;;;;;;;;;;4974428;28;20432;-79
2022/04/18 00:50:24;;;;;;;4.10;2.85;;;;;;;;;;4974342;28;20030;-79
2022/04/18 00:52:49;;;;;;;4.07;2.70;;;;;;;;;;4972968;28;20447;-79
2022/04/18 00:55:14;;;;;;;3.78;2.58;;;;;;;;;;4956592;28;20468;-79
2022/04/18 00:57:39;;;;;;;4.55;2.63;;;;;;;;;;4973483;28;20030;-80
2022/04/18 01:00:05;;;;;;;4.72;2.60;;;;;;;;;;4972786;28;20093;-80
2022/04/18 01:02:30;;;;;;;4.32;2.92;;;;;;;;;;4973219;28;20050;-79
2022/04/18 01:04:55;;;;;;;4.40;2.90;;;;;;;;;;4972306;28;20175;-79
2022/04/18 01:07:21;;;;;;;5.18;2.70;;;;;;;;;;4974656;28;20499;-79
2022/04/18 01:09:46;;;;;;;4.70;2.92;;;;;;;;;;4973248;28;20043;-79
2022/04/18 01:12:11;;;;;;;5.97;2.92;;;;;;;;;;4974657;28;20031;-79
2022/04/18 01:15:00;;;;;;;6.22;3.10;;;;;;;;;;4972773;28;20082;-80
2022/04/18 01:17:44;;;;;;;5.75;3.00;;;;;;;;;;4974817;28;20046;-79
2022/04/18 01:20:36;;;;;;;4.70;2.97;;;;;;;;;;4966339;28;20215;-79
2022/04/18 01:23:14;;;;;;;6.10;3.00;;;;;;;;;;4959364;28;20050;-80
2022/04/18 01:31:16;;;;;;;4.63;2.78;;;;;;;;;;4977563;28;20555;-80
2022/04/18 01:33:42;;;;;;;6.40;2.88;;;;;;;;;;4961660;28;20061;-79
2022/04/18 01:36:07;;;;;;;5.75;3.15;;;;;;;;;;4977182;28;20030;-79
2022/04/18 01:38:34;;;;;;;4.97;2.88;;;;;;;;;;4977528;28;20495;-79
2022/04/18 01:40:59;;;;;;;6.25;2.80;;;;;;;;;;4979608;28;20041;-79
2022/04/18 01:43:24;;;;;;;4.68;2.78;;;;;;;;;;4977929;28;20045;-79
2022/04/18 01:45:50;;;;;;;4.85;2.90;;;;;;;;;;4960857;28;20565;-79
2022/04/18 01:48:24;;;;;;;4.45;2.80;;;;;;;;;;4978080;28;20086;-79
2022/04/18 01:50:50;;;;;;;4.60;2.90;;;;;;;;;;4977657;28;20042;-79
2022/04/18 01:53:15;;;;;;;5.38;2.80;;;;;;;;;;4962179;28;20034;-79
2022/04/18 01:55:41;;;;;;;4.03;2.40;;;;;;;;;;4976935;28;20121;-79
2022/04/18 01:58:08;;;;;;;3.83;2.55;;;;;;;;;;4978042;28;20487;-80
2022/04/18 02:00:33;;;;;;;3.95;2.40;;;;;;;;;;4961882;28;20058;-79
2022/04/18 02:02:59;;;;;;;3.80;2.28;;;;;;;;;;4977684;28;20492;-80
2022/04/18 02:05:24;;;;;;;5.40;2.25;;;;;;;;;;4976569;28;20077;-79
2022/04/18 02:07:49;;;;;;;5.15;2.40;;;;;;;;;;4976730;28;20045;-79
2022/04/18 02:10:15;;;;;;;5.75;2.35;;;;;;;;;;4960817;28;20034;-79
2022/04/18 02:12:40;;;;;;;4.07;2.50;;;;;;;;;;4960836;28;20054;-79
2022/04/18 02:15:06;;;;;;;4.35;2.58;;;;;;;;;;4977801;28;20031;-79
2022/04/18 02:17:39;;;;;;;3.00;2.05;;;;;;;;;;4976800;28;20035;-79
2022/04/18 02:20:04;;;;;;;3.28;2.30;;;;;;;;;;4976634;28;20031;-80
2022/04/18 02:22:30;;;;;;;5.60;2.38;;;;;;;;;;4960901;28;20026;-81
2022/04/18 02:24:55;;;;;;;5.30;2.38;;;;;;;;;;4974960;28;20041;-80
2022/04/18 02:27:21;;;;;;;4.03;2.42;;;;;;;;;;4975838;28;20748;-80
2022/04/18 02:29:48;;;;;;;4.75;2.60;;;;;;;;;;4959994;28;20039;-80
2022/04/18 02:34:58;;;;;;;3.40;2.45;;;;;;;;;;4975187;28;20043;-80
2022/04/18 02:37:23;;;;;;;4.47;2.50;;;;;;;;;;4959580;28;20093;-80
2022/04/18 02:39:48;;;;;;;4.35;2.67;;;;;;;;;;4974800;28;20427;-80
2022/04/18 02:42:15;;;;;;;5.25;2.70;;;;;;;;;;4975299;28;20050;-80
2022/04/18 02:44:45;;;;;;;5.28;2.88;;;;;;;;;;4958772;28;20135;-80
2022/04/18 02:47:12;;;;;;;4.00;2.70;;;;;;;;;;4975518;28;20129;-80
2022/04/18 02:49:37;;;;;;;5.65;3.15;;;;;;;;;;4976475;28;20074;-81
2022/04/18 02:52:03;;;;;;;6.28;4.00;;;;;;;;;;4959634;28;20043;-80
2022/04/18 02:54:29;;;;;;;8.25;4.72;;;;;;;;;;4974578;28;20482;-81
2022/04/18 02:56:54;;;;;;;9.15;4.55;;;;;;;;;;4959090;28;20031;-80
2022/04/18 02:59:20;;;;;;;14.20;5.07;;;;;;;;;;4976080;28;20039;-80
2022/04/18 03:01:45;;;;;;;6.68;4.13;;;;;;;;;;4974948;28;20125;-79
2022/04/18 03:04:11;;;;;;;5.97;3.45;;;;;;;;;;4974620;28;20038;-80
2022/04/18 03:06:36;;;;;;;7.50;3.88;;;;;;;;;;4975286;28;20084;-80
2022/04/18 03:09:02;;;;;;;6.93;3.65;;;;;;;;;;4975055;28;20054;-80
2022/04/18 03:11:27;;;;;;;5.47;3.40;;;;;;;;;;4975344;28;20046;-81
2022/04/18 03:13:53;;;;;;;6.05;3.67;;;;;;;;;;4975918;28;20039;-81
2022/04/18 03:16:39;;;;;;;4.93;3.10;;;;;;;;;;4975281;28;20046;-81
2022/04/18 03:19:05;;;;;;;4.53;2.80;;;;;;;;;;4974811;28;20031;-80
2022/04/18 03:21:34;;;;;;;5.05;2.67;;;;;;;;;;4974654;28;20035;-81
2022/04/18 03:24:04;;;;;;;4.32;2.42;;;;;;;;;;4958139;28;20037;-81
2022/04/18 03:26:45;;;;;;;5.22;2.80;;;;;;;;;;4974608;28;20051;-81
2022/04/18 03:29:17;;;;;;;5.93;2.67;;;;;;;;;;4974279;28;20403;-81
2022/04/18 03:31:42;;;;;;;4.20;2.53;;;;;;;;;;4958287;28;20071;-81
2022/04/18 03:34:10;;;;;;;4.20;2.60;;;;;;;;;;4974249;28;20117;-81
2022/04/18 03:42:03;;;;;;;7.95;5.55;;;;;;;;;;4975525;28;20423;-81
2022/04/18 03:44:29;;;;;;;6.65;4.25;;;;;;;;;;4974004;28;20031;-80
2022/04/18 03:46:54;;;;;;;6.20;3.28;;;;;;;;;;4958277;28;20423;-80
2022/04/18 03:49:20;;;;;;;4.57;2.92;;;;;;;;;;4973892;28;20031;-81
2022/04/18 03:51:48;;;;;;;4.80;3.30;;;;;;;;;;4974397;28;20043;-81
2022/04/18 03:54:14;;;;;;;4.50;2.90;;;;;;;;;;4973358;28;20889;-80
2022/04/18 03:56:41;;;;;;;6.22;3.45;;;;;;;;;;4974015;28;20042;-81
2022/04/18 03:59:32;;;;;;;8.63;3.20;;;;;;;;;;4973764;28;20514;-81
2022/04/18 04:02:01;;;;;;;5.15;2.90;;;;;;;;;;4974091;28;20035;-81
2022/04/18 04:04:28;;;;;;;5.80;2.80;;;;;;;;;;4973569;28;20027;-80
2022/04/18 04:06:57;;;;;;;5.35;3.10;;;;;;;;;;4973826;28;20031;-81
2022/04/18 04:09:23;;;;;;;4.97;3.00;;;;;;;;;;4974075;28;20125;-81
2022/04/18 04:11:49;;;;;;;3.65;2.58;;;;;;;;;;4957748;28;20031;-81
2022/04/18 04:14:14;;;;;;;4.78;2.80;;;;;;;;;;4973133;28;20134;-80
2022/04/18 04:16:39;;;;;;;5.53;3.10;;;;;;;;;;4973752;28;20491;-80
2022/04/18 04:19:05;;;;;;;3.95;2.72;;;;;;;;;;4973505;28;20035;-80
2022/04/18 04:21:30;;;;;;;3.70;2.53;;;;;;;;;;4974098;28;20039;-81
2022/04/18 04:23:57;;;;;;;4.88;3.10;;;;;;;;;;4973137;28;20126;-80
2022/04/18 04:26:55;;;;;;;3.53;2.60;;;;;;;;;;4970903;28;20472;-80
2022/04/18 04:29:22;;;;;;;3.83;2.80;;;;;;;;;;4973660;28;20038;-81
2022/04/18 04:32:01;;;;;;;4.97;3.03;;;;;;;;;;4974250;28;20062;-81
2022/04/18 04:34:29;;;;;;;4.40;3.15;;;;;;;;;;4973427;28;20061;-80
2022/04/18 04:37:13;;;;;;;5.07;3.03;;;;;;;;;;4973846;28;20082;-80
2022/04/18 04:39:41;;;;;;;4.20;2.78;;;;;;;;;;4992542;28;20030;-80
2022/04/18 04:42:07;;;;;;;5.55;2.80;;;;;;;;;;4982451;28;20312;-79
2022/04/18 04:44:32;;;;;;;3.38;2.22;;;;;;;;;;4991967;28;20116;-81
2022/04/18 04:47:00;;;;;;;4.85;2.45;;;;;;;;;;4992791;28;20046;-80
2022/04/18 04:49:28;;;;;;;7.60;2.90;;;;;;;;;;4992423;28;20058;-81
2022/04/18 04:52:14;;;;;;;5.05;3.05;;;;;;;;;;4992312;28;20121;-79
2022/04/18 04:54:40;;;;;;;10.45;2.60;;;;;;;;;;4991853;28;20038;-80
2022/04/18 04:57:09;;;;;;;4.57;2.65;;;;;;;;;;4977030;28;20050;-81
2022/04/18 04:59:54;;;;;;;4.10;2.60;;;;;;;;;;4983715;28;20053;-81
2022/04/18 05:02:24;;;;;;;3.33;2.33;;;;;;;;;;4992443;28;20120;-81
2022/04/18 05:04:50;;;;;;;4.22;2.47;;;;;;;;;;4984739;28;20027;-81
2022/04/18 05:07:16;;;;;;;3.25;2.40;;;;;;;;;;4975224;28;20085;-81
2022/04/18 05:10:17;;;;;;;3.22;2.25;;;;;;;;;;4993343;28;20050;-81
2022/04/18 05:12:43;;;;;;;3.10;2.30;;;;;;;;;;4975329;28;20061;-80
2022/04/18 05:15:08;;;;;;;4.05;2.30;;;;;;;;;;4982874;28;20041;-80
2022/04/18 05:17:54;;;;;;;5.25;2.60;;;;;;;;;;4993460;28;20113;-80
2022/04/18 05:20:20;;;;;;;3.78;2.42;;;;;;;;;;4976440;28;20435;-81
2022/04/18 05:22:45;;;;;;;4.63;2.60;;;;;;;;;;4985477;28;20525;-81
2022/04/18 05:25:14;;;;;;;4.13;2.90;;;;;;;;;;4988811;28;20089;-80
2022/04/18 05:27:43;;;;;;;4.53;2.72;;;;;;;;;;4992456;28;20026;-81
2022/04/18 05:30:24;;;;;;;5.43;2.80;;;;;;;;;;4982542;28;20027;-81
2022/04/18 05:32:50;;;;;;;5.53;2.83;;;;;;;;;;4993277;28;20026;-80
2022/04/18 05:35:15;;;;;;;6.22;2.95;;;;;;;;;;4991668;28;20077;-80
2022/04/18 05:37:41;;;;;;;10.25;3.17;;;;;;;;;;4992422;28;20034;-81
2022/04/18 05:40:36;;;;;;;5.88;3.20;;;;;;;;;;4988510;28;20487;-80
2022/04/18 05:43:03;;;;;;;4.65;3.20;;;;;;;;;;4976033;28;20050;-80
2022/04/18 05:45:30;;;;;;;4.32;2.95;;;;;;;;;;4991399;28;20038;-79
2022/04/18 05:48:04;;;;;;;4.88;2.53;;;;;;;;;;4992225;28;20034;-80
2022/04/18 05:50:33;;;;;;;4.00;2.70;;;;;;;;;;4991771;28;20394;-80
2022/04/18 05:53:15;;;;;;;4.13;2.97;;;;;;;;;;4992084;28;20042;-80
2022/04/18 05:55:59;;;;;;;5.50;2.95;;;;;;;;;;4993146;28;20165;-80
2022/04/18 05:58:41;;;;;;;4.68;2.85;;;;;;;;;;4992210;28;20038;-80
2022/04/18 06:01:16;;;;;;;5.22;2.90;;;;;;;;;;4977423;28;20038;-80
2022/04/18 06:03:42;;;;;;;4.57;2.60;;;;;;;;;;4975955;28;20034;-80
2022/04/18 06:06:10;;;;;;;4.80;3.10;;;;;;;;;;4991168;28;20101;-80
2022/04/18 06:08:36;;;;;;;5.38;2.92;;;;;;;;;;4975811;28;20037;-79
2022/04/18 06:11:03;;;;;;;5.05;2.85;;;;;;;;;;4991941;28;20556;-80
2022/04/18 06:13:39;;;;;;;4.55;2.80;;;;;;;;;;4991223;28;20026;-79
2022/04/18 06:16:05;;;;;;;4.60;3.08;;;;;;;;;;4978022;28;20089;-79
2022/04/18 06:18:31;;;;;;;5.38;3.30;;;;;;;;;;4994417;28;20041;-79
2022/04/18 06:21:00;;;;;;;6.88;3.20;;;;;;;;;;4994329;28;20034;-80
2022/04/18 06:23:26;;;;;;;6.45;3.17;;;;;;;;;;4978763;28;20113;-79
2022/04/18 06:26:11;;;;;;;6.13;3.38;;;;;;;;;;4995345;28;20050;-79
2022/04/18 06:28:36;;;;;;;4.07;2.63;;;;;;;;;;4994374;28;20085;-79
2022/04/18 06:31:02;;;;;;;4.97;2.80;;;;;;;;;;4994734;28;20062;-80
2022/04/18 06:33:34;;;;;;;3.97;2.70;;;;;;;;;;4995406;28;20038;-80
2022/04/18 06:36:01;;;;;;;4.20;2.70;;;;;;;;;;4994467;28;20040;-80
2022/04/18 06:38:28;;;;;;;4.53;2.35;;;;;;;;;;4978837;28;20034;-79
2022/04/18 06:41:08;;;;;;;4.15;2.33;;;;;;;;;;4995288;28;20042;-80
2022/04/18 06:43:35;;;;;;;4.43;2.40;;;;;;;;;;4995191;28;20499;-81
2022/04/18 06:46:06;;;;;;;4.20;2.20;;;;;;;;;;4979045;28;20039;-80
2022/04/18 06:48:31;;;;;;;4.45;2.10;;;;;;;;;;4979083;28;20033;-81
2022/04/18 06:51:15;;;;;;;;;;;;;;;;;;4996766;28;20097;-79
2022/04/18 06:53:46;;;;;;;5.57;2.70;;;;;;;;;;4982857;28;92361;-81
2022/04/18 06:59:21;;;;;;;3.63;2.20;;;;;;;;;;4997665;28;20503;-80
2022/04/18 07:01:48;;;;;;;3.88;2.30;;;;;;;;;;4998189;28;20398;-82
2022/04/18 07:04:13;;;;;;;2.92;1.90;;;;;;;;;;4981659;28;20026;-82
2022/04/18 07:06:39;;;;;;;3.78;2.38;;;;;;;;;;5015854;28;20034;-81
2022/04/18 07:09:04;;;;;;;4.82;2.10;;;;;;;;;;4977343;28;20065;-81
2022/04/18 07:11:51;;;;;;;3.67;2.20;;;;;;;;;;4980382;28;20486;-81
2022/04/18 07:14:19;;;;;;;3.75;2.30;;;;;;;;;;4960940;28;20035;-79
2022/04/18 07:16:49;;;;;;;3.35;1.90;;;;;;;;;;4981739;28;20029;-81
2022/04/18 07:19:19;;;;;;;5.43;2.10;;;;;;;;;;4982436;28;20452;-80
2022/04/18 07:21:44;;;;;;;3.78;2.38;;;;;;;;;;4997574;28;20121;-80
2022/04/18 07:24:10;;;;;;;3.13;2.03;;;;;;;;;;4996967;28;20120;-81
2022/04/18 07:26:36;;;;;;;3.55;2.30;;;;;;;;;;4984239;28;20049;-81
2022/04/18 07:29:02;;;;;;;3.50;2.10;;;;;;;;;;4977809;28;20041;-80
2022/04/18 07:31:27;;;;;;;3.17;2.15;;;;;;;;;;4978527;28;20034;-81
2022/04/18 07:33:53;;;;;;;2.42;1.98;;;;;;;;;;4978192;28;20057;-82
2022/04/18 07:36:20;;;;;;;5.53;1.90;;;;;;;;;;4978295;28;20034;-81
2022/04/18 07:38:49;;;;;;;5.47;2.33;;;;;;;;;;4978394;28;20047;-80
2022/04/18 07:41:15;;;;;;;4.53;2.10;;;;;;;;;;4977762;28;20034;-80
2022/04/18 07:43:43;;;;;;;4.15;2.20;;;;;;;;;;4990490;28;20032;-80
2022/04/18 07:46:11;;;;;;;4.95;2.38;;;;;;;;;;4980428;28;20033;-79
2022/04/18 07:48:37;;;;;;;4.05;2.47;;;;;;;;;;4995941;28;20172;-79
2022/04/18 07:54:17;;;;;;;4.22;2.97;;;;;;;;;;4955199;28;20043;-80
2022/04/18 07:56:44;;;;;;;4.53;2.50;;;;;;;;;;4973284;28;20499;-79
2022/04/18 07:59:09;;;;;;;4.05;2.13;;;;;;;;;;4977311;28;20081;-79
2022/04/18 08:01:38;;;;;;;4.03;2.65;;;;;;;;;;4996826;28;20454;-80
2022/04/18 08:04:04;;;;;;;4.78;2.05;;;;;;;;;;4979952;28;20418;-80
2022/04/18 08:06:31;;;;;;;5.63;2.40;;;;;;;;;;4996408;28;20037;-80
2022/04/18 08:09:18;;;;;;;3.45;2.33;;;;;;;;;;4996262;28;20034;-80
2022/04/18 08:11:43;;;;;;;5.63;2.60;;;;;;;;;;4980588;28;20072;-80
2022/04/18 08:14:11;;;;;;;4.63;2.80;;;;;;;;;;4996568;28;20084;-79
2022/04/18 08:16:43;;;;;;;3.92;2.33;;;;;;;;;;4992796;28;20030;-80
2022/04/18 08:19:35;;;;;;;5.40;3.17;;;;;;;;;;4979055;28;20034;-80
2022/04/18 08:22:02;;;;;;;4.05;2.67;;;;;;;;;;4977564;28;20034;-80
2022/04/18 08:24:28;;;;;;;3.15;2.10;;;;;;;;;;4976509;28;20038;-80
2022/04/18 08:27:17;;;;;;;4.07;2.88;;;;;;;;;;4990021;28;20542;-80
2022/04/18 08:29:52;;;;;;;3.30;2.38;;;;;;;;;;4977458;28;20473;-80
2022/04/18 08:32:23;;;;;;;4.97;3.03;;;;;;;;;;4977755;28;20030;-80
2022/04/18 08:34:50;;;;;;;8.80;4.78;;;;;;;;;;4977111;28;20030;-80
2022/04/18 08:37:18;;;;;;;3.17;2.20;;;;;;;;;;4976967;28;20030;-80
2022/04/18 08:40:04;;;;;;;3.70;2.20;;;;;;;;;;4941825;28;20507;-80
2022/04/18 08:42:30;;;;;;;3.63;2.38;;;;;;;;;;4977347;28;20085;-80
2022/04/18 08:44:56;;;;;;;2.85;2.17;;;;;;;;;;4960319;28;20033;-80
2022/04/18 08:52:53;;;;;;;3.15;2.08;;;;;;;;;;4977087;28;20038;-80
2022/04/18 08:55:44;;;;;;;4.40;2.08;;;;;;;;;;4998358;28;20058;-81
2022/04/18 08:58:33;;;;;;;3.78;1.90;;;;;;;;;;4972617;28;20034;-79
2022/04/18 09:01:01;;;;;;;2.95;1.80;;;;;;;;;;4981295;28;20080;-82
2022/04/18 09:03:44;;;;;;;3.42;2.00;;;;;;;;;;5013663;28;20041;-81
2022/04/18 09:06:10;;;;;;;5.00;2.17;;;;;;;;;;4995439;28;20026;-81
2022/04/18 09:08:36;;;;;;;3.47;2.00;;;;;;;;;;4995444;28;20029;-81
2022/04/18 09:11:03;;;;;;;3.92;2.10;;;;;;;;;;4980456;28;20030;-80
2022/04/18 09:13:30;;;;;;;2.95;1.90;;;;;;;;;;4976752;28;20030;-81
2022/04/18 09:15:58;;;;;;;4.18;2.20;;;;;;;;;;4960760;28;20093;-81
2022/04/18 09:18:24;;;;;;;3.55;2.03;;;;;;;;;;4975917;28;20490;-82
2022/04/18 09:20:59;;;;;;;2.78;1.83;;;;;;;;;;4976037;28;20034;-81
2022/04/18 09:23:27;;;;;;;2.78;1.80;;;;;;;;;;4960218;28;20093;-81
2022/04/18 09:25:54;;;;;;;3.10;1.90;;;;;;;;;;4975337;28;20129;-81
2022/04/18 09:28:20;;;;;;;4.28;1.98;;;;;;;;;;4959230;28;20085;-82
2022/04/18 09:30:45;;;;;;;4.88;2.20;;;;;;;;;;4992562;28;20022;-81
2022/04/18 09:33:10;;;;;;;4.18;2.22;;;;;;;;;;4976405;28;20451;-81
2022/04/18 09:35:55;;;;;;;6.50;2.20;;;;;;;;;;4976599;28;20038;-81
2022/04/18 09:38:20;;;;;;;5.00;2.00;;;;;;;;;;4977274;28;20042;-81
2022/04/18 09:41:05;;;;;;;4.75;1.92;;;;;;;;;;4987107;28;20495;-82
2022/04/18 09:43:34;;;;;;;5.35;2.10;;;;;;;;;;4976769;28;20030;-82
2022/04/18 09:46:00;;;;;;;3.33;1.98;;;;;;;;;;4976075;28;20061;-81
2022/04/18 09:48:27;;;;;;;9.57;5.32;;;;;;;;;;4976963;28;20018;-81
2022/04/18 09:51:01;;;;;;;4.38;2.55;;;;;;;;;;4980100;28;20035;-81
2022/04/18 09:53:45;;;;;;;6.80;2.50;;;;;;;;;;4980638;28;20034;-81
2022/04/18 09:56:10;;;;;;;7.55;2.28;;;;;;;;;;4979774;28;20030;-83
2022/04/18 09:58:35;;;;;;;4.10;2.40;;;;;;;;;;4983068;28;20061;-81
2022/04/18 10:01:01;;;;;;;4.10;2.22;;;;;;;;;;5007782;28;20034;-82
2022/04/18 10:03:26;;;;;;;3.10;2.20;;;;;;;;;;5016289;28;20030;-81
2022/04/18 10:05:51;;;;;;;3.67;2.28;;;;;;;;;;5016808;28;20034;-81
2022/04/18 10:08:16;;;;;;;3.22;2.10;;;;;;;;;;5000573;28;20105;-81
2022/04/18 10:10:42;;;;;;;4.30;2.25;;;;;;;;;;4979625;28;20079;-81
2022/04/18 10:13:07;;;;;;;3.42;2.00;;;;;;;;;;4997419;28;20038;-81
2022/04/18 10:15:32;;;;;;;3.63;2.17;;;;;;;;;;5002845;28;20025;-81
2022/04/18 10:17:57;;;;;;;3.60;2.22;;;;;;;;;;5015892;28;20124;-82
2022/04/18 10:20:23;;;;;;;4.25;2.17;;;;;;;;;;5016570;28;20105;-81
2022/04/18 10:22:49;;;;;;;2.97;2.10;;;;;;;;;;4999376;28;20437;-81
2022/04/18 10:25:14;;;;;;;2.97;2.28;;;;;;;;;;5015778;28;20094;-81
2022/04/18 10:27:39;;;;;;;5.25;2.40;;;;;;;;;;5017201;28;20109;-81
2022/04/18 10:30:05;;;;;;;3.70;2.28;;;;;;;;;;4998749;28;20514;-81
2022/04/18 10:32:30;;;;;;;2.83;2.17;;;;;;;;;;5014985;28;20094;-81
2022/04/18 10:34:55;;;;;;;3.55;2.10;;;;;;;;;;4997330;28;20045;-82
2022/04/18 10:37:20;;;;;;;5.93;2.50;;;;;;;;;;5016399;28;20041;-82
2022/04/18 10:39:46;;;;;;;4.53;2.30;;;;;;;;;;5015548;28;20041;-82
2022/04/18 10:42:11;;;;;;;5.15;2.97;;;;;;;;;;5015139;28;20039;-82
2022/04/18 10:44:38;;;;;;;8.38;4.97;;;;;;;;;;5014138;28;20034;-82
2022/04/18 10:47:03;;;;;;;4.65;2.40;;;;;;;;;;5015068;28;20034;-83
2022/04/18 10:49:31;;;;;;;6.35;3.00;;;;;;;;;;5017477;28;20030;-83
2022/04/18 10:51:56;;;;;;;5.95;2.42;;;;;;;;;;4981322;28;20041;-84
2022/04/18 10:54:22;;;;;;;3.30;2.15;;;;;;;;;;4978663;28;20514;-82
2022/04/18 10:56:48;;;;;;;3.45;2.03;;;;;;;;;;4978616;28;20395;-81
2022/04/18 10:59:14;;;;;;;7.45;4.15;;;;;;;;;;4977868;28;20046;-81
2022/04/18 11:01:39;;;;;;;5.13;2.67;;;;;;;;;;4976933;28;20113;-82
2022/04/18 11:04:04;;;;;;;5.30;2.40;;;;;;;;;;4976241;28;20027;-82
2022/04/18 11:06:32;;;;;;;5.70;2.40;;;;;;;;;;4977452;28;20447;-82
2022/04/18 11:08:57;;;;;;;3.95;2.08;;;;;;;;;;4976172;28;20543;-81
2022/04/18 11:11:22;;;;;;;2.50;1.75;;;;;;;;;;4976671;28;20034;-82
2022/04/18 11:13:48;;;;;;;4.40;1.80;;;;;;;;;;4978294;28;20047;-81
2022/04/18 11:16:13;;;;;;;2.83;1.63;;;;;;;;;;4976369;28;20058;-82
2022/04/18 11:18:38;;;;;;;2.17;1.30;;;;;;;;;;4977487;28;20053;-81
2022/04/18 11:21:03;;;;;;;4.80;1.30;;;;;;;;;;4976046;28;20128;-81
2022/04/18 11:23:30;;;;;;;1.92;1.33;;;;;;;;;;4977089;28;20037;-81
2022/04/18 11:25:55;;;;;;;4.15;2.80;;;;;;;;;;4959357;28;20518;-81
2022/04/18 11:28:20;;;;;;;2.53;1.40;;;;;;;;;;4976544;28;20034;-81
2022/04/18 11:30:46;;;;;;;2.88;1.67;;;;;;;;;;4977313;28;20034;-81
2022/04/18 11:33:11;;;;;;;3.63;1.55;;;;;;;;;;4977329;28;20082;-81
2022/04/18 11:35:36;;;;;;;3.75;1.70;;;;;;;;;;4976267;28;20492;-81
2022/04/18 11:38:01;;;;;;;1.90;1.30;;;;;;;;;;4976925;28;20038;-81
2022/04/18 11:40:27;;;;;;;2.20;1.40;;;;;;;;;;4976331;28;20442;-81
2022/04/18 11:42:52;;;;;;;2.50;1.20;;;;;;;;;;4976637;28;20038;-81
2022/04/18 11:45:17;;;;;;;2.55;1.70;;;;;;;;;;4976368;28;20399;-81
2022/04/18 11:47:44;;;;;;;1.67;1.25;;;;;;;;;;4975757;28;20030;-81
2022/04/18 11:50:09;;;;;;;2.08;1.35;;;;;;;;;;4975823;28;20184;-81
2022/04/18 11:52:34;;;;;;;2.03;1.10;;;;;;;;;;4976458;28;20501;-81
2022/04/18 11:55:00;;;;;;;2.47;1.33;;;;;;;;;;4975514;28;20038;-81
2022/04/18 11:57:25;;;;;;;2.00;1.23;;;;;;;;;;4976592;28;20035;-81
2022/04/18 11:59:50;;;;;;;2.38;1.30;;;;;;;;;;4976447;28;20109;-81
2022/04/18 12:08:03;;;;;;;3.70;1.40;;;;;;;;;;4935719;29;20134;-81
2022/04/18 12:10:29;;;;;;;1.85;1.38;;;;;;;;;;4935382;29;20126;-81
2022/04/18 12:12:54;;;;;;;1.90;1.40;;;;;;;;;;4953598;28;20133;-81
2022/04/18 12:15:19;;;;;;;2.50;1.25;;;;;;;;;;4975435;28;20039;-81
2022/04/18 12:17:45;;;;;;;2.83;1.48;;;;;;;;;;4976385;28;20042;-81
2022/04/18 12:20:10;;;;;;;2.30;1.30;;;;;;;;;;4974661;28;20080;-81
2022/04/18 12:22:35;;;;;;;4.22;1.35;;;;;;;;;;4975346;28;20041;-81
2022/04/18 12:25:00;;;;;;;3.10;1.30;;;;;;;;;;4975393;28;20038;-81
2022/04/18 12:27:25;;;;;;;2.95;1.35;;;;;;;;;;4975936;28;20030;-81
2022/04/18 12:29:51;;;;;;;1.58;1.17;;;;;;;;;;4975207;28;20054;-83
2022/04/18 12:32:16;;;;;;;2.00;1.20;;;;;;;;;;4977156;28;20408;-81
2022/04/18 12:34:41;;;;;;;1.35;1.10;;;;;;;;;;4975016;28;20173;-81
2022/04/18 12:37:06;;;;;;;2.63;1.20;;;;;;;;;;4976186;28;20045;-81
2022/04/18 12:39:32;;;;;;;2.15;1.20;;;;;;;;;;4974438;28;20037;-81
2022/04/18 12:41:57;;;;;;;3.58;1.42;;;;;;;;;;4975942;28;20077;-81
2022/04/18 12:44:22;;;;;;;3.25;1.55;;;;;;;;;;4975472;28;20395;-81
2022/04/18 12:46:48;;;;;;;2.63;1.40;;;;;;;;;;4975625;28;20054;-81
2022/04/18 12:49:15;;;;;;;3.58;1.48;;;;;;;;;;4975491;28;20045;-81
2022/04/18 12:51:42;;;;;;;1.77;1.10;;;;;;;;;;4975543;28;20027;-80
2022/04/18 12:54:07;;;;;;;2.03;1.30;;;;;;;;;;4974735;28;20034;-80
2022/04/18 12:56:33;;;;;;;2.15;1.20;;;;;;;;;;4975119;28;20050;-80
2022/04/18 12:58:58;;;;;;;2.05;1.23;;;;;;;;;;4975404;28;20031;-82
2022/04/18 13:01:24;;;;;;;2.90;1.33;;;;;;;;;;4975357;28;20057;-82
2022/04/18 13:03:51;;;;;;;4.63;2.22;;;;;;;;;;4957952;28;20039;-82
2022/04/18 13:06:16;;;;;;;2.35;1.27;;;;;;;;;;4974956;28;20038;-81
2022/04/18 13:08:42;;;;;;;2.17;1.23;;;;;;;;;;4975050;28;20019;-81
2022/04/18 13:11:07;;;;;;;3.70;1.80;;;;;;;;;;4974084;28;20483;-83
2022/04/18 13:13:32;;;;;;;1.83;1.10;;;;;;;;;;4958153;28;20138;-81
2022/04/18 13:15:57;;;;;;;2.33;1.20;;;;;;;;;;4973710;28;20109;-81
2022/04/18 13:18:23;;;;;;;3.05;1.42;;;;;;;;;;4975277;28;20035;-82
2022/04/18 13:20:48;;;;;;;2.03;1.10;;;;;;;;;;4975271;28;20539;-83
2022/04/18 13:23:13;;;;;;;3.45;1.40;;;;;;;;;;4958858;28;20510;-82
2022/04/18 13:25:39;;;;;;;2.65;1.10;;;;;;;;;;4979269;28;20043;-84
2022/04/18 13:28:09;;;;;;;4.80;1.25;;;;;;;;;;4979647;28;20092;-83
2022/04/18 13:30:35;;;;;;;1.75;1.17;;;;;;;;;;4980754;28;20034;-84
2022/04/18 13:33:00;;;;;;;3.97;1.40;;;;;;;;;;4980167;28;20035;-84
2022/04/18 13:35:26;;;;;;;2.05;1.30;;;;;;;;;;4980719;28;20495;-84
2022/04/18 13:37:51;;;;;;;10.38;5.32;;;;;;;;;;4979621;28;20031;-82
2022/04/18 13:40:16;;;;;;;1.50;1.10;;;;;;;;;;4977063;28;20039;-82
2022/04/18 13:42:42;;;;;;;2.55;1.23;;;;;;;;;;4986994;28;20037;-82
2022/04/18 13:45:08;;;;;;;2.55;1.30;;;;;;;;;;4963879;28;20041;-83
2022/04/18 13:47:33;;;;;;;2.33;1.20;;;;;;;;;;4997403;28;20403;-82
2022/04/18 13:49:59;;;;;;;2.20;1.33;;;;;;;;;;5006193;28;20029;-82
2022/04/18 13:52:24;;;;;;;1.90;1.27;;;;;;;;;;5017930;28;20694;-82
2022/04/18 13:54:49;;;;;;;2.40;1.40;;;;;;;;;;4999660;28;20555;-82
2022/04/18 13:57:14;;;;;;;2.38;1.23;;;;;;;;;;5018036;28;20510;-82
2022/04/18 13:59:40;;;;;;;2.60;1.38;;;;;;;;;;5000692;28;20036;-82
2022/04/18 14:02:05;;;;;;;1.58;1.30;;;;;;;;;;4980793;28;20510;-82
2022/04/18 14:04:30;;;;;;;1.85;1.10;;;;;;;;;;4998223;28;20100;-82
2022/04/18 14:06:56;;;;;;;1.60;1.00;;;;;;;;;;4998653;28;20042;-82
2022/04/18 14:09:22;;;;;;;2.00;1.20;;;;;;;;;;4998315;28;20034;-82
2022/04/18 14:11:47;;;;;;;2.30;1.10;;;;;;;;;;4998631;28;20035;-82
2022/04/18 14:20:20;;;;;;;3.33;1.30;;;;;;;;;;4997633;28;20026;-82
2022/04/18 14:22:25;;;;;;;;;;;;;;;;;;5000859;28;20046;-80
2022/04/18 14:24:50;;;;;;;1.85;1.10;;;;;;;;;;5017669;28;19967;-83
2022/04/18 14:27:16;;;;;;;3.08;1.25;;;;;;;;;;4984059;28;20128;-82
2022/04/18 14:29:41;;;;;;;1.83;1.10;;;;;;;;;;5000283;28;20030;-82
2022/04/18 14:32:06;;;;;;;1.45;1.10;;;;;;;;;;5017429;28;20375;-82
2022/04/18 14:34:32;;;;;;;2.65;1.30;;;;;;;;;;5016339;28;20030;-81
2022/04/18 14:36:57;;;;;;;1.40;1.00;;;;;;;;;;4998730;28;20048;-81
2022/04/18 14:39:24;;;;;;;1.95;1.10;;;;;;;;;;4999390;28;20419;-81
2022/04/18 14:41:49;;;;;;;1.92;1.30;;;;;;;;;;5016323;28;20494;-81
2022/04/18 14:44:14;;;;;;;1.95;1.20;;;;;;;;;;5016339;28;20129;-81
2022/04/18 14:46:40;;;;;;;1.60;1.10;;;;;;;;;;5015632;28;20034;-81
2022/04/18 14:49:05;;;;;;;2.85;1.30;;;;;;;;;;5013313;28;20530;-82
2022/04/18 14:51:30;;;;;;;2.75;1.35;;;;;;;;;;4996776;28;20372;-83
2022/04/18 14:53:55;;;;;;;1.80;1.17;;;;;;;;;;4979514;28;20405;-81
2022/04/18 14:56:21;;;;;;;2.42;1.20;;;;;;;;;;4996909;28;20034;-81
2022/04/18 14:58:46;;;;;;;2.10;1.20;;;;;;;;;;5036366;23;20096;-85
2022/04/18 15:01:11;;;;;;;2.80;1.30;;;;;;;;;;5017588;28;20418;-85
2022/04/18 15:03:36;;;;;;;1.88;1.10;;;;;;;;;;5015563;28;20026;-85
2022/04/18 15:06:02;;;;;;;1.50;1.00;;;;;;;;;;4998996;28;20034;-85
2022/04/18 15:08:27;;;;;;;3.15;1.30;;;;;;;;;;5018143;28;20045;-86
2022/04/18 15:10:52;;;;;;;3.25;1.20;;;;;;;;;;5018186;28;20061;-88
2022/04/18 15:13:17;;;;;;;3.55;1.33;;;;;;;;;;5017411;28;20486;-87
2022/04/18 15:15:43;;;;;;;2.35;1.30;;;;;;;;;;5016702;28;20044;-85
2022/04/18 15:18:09;;;;;;;2.17;1.17;;;;;;;;;;5016843;28;20117;-86
2022/04/18 15:20:34;;;;;;;3.25;1.40;;;;;;;;;;5016250;28;20030;-85
2022/04/18 15:23:00;;;;;;;2.67;1.10;;;;;;;;;;5014898;28;20057;-87
2022/04/18 15:25:25;;;;;;;2.75;1.17;;;;;;;;;;5014120;28;20040;-85